PWSweather.com
Personal Weather Stations
Station Observations
KNYSYRAC2
Fairmount Hills, Fairmount, NY 13219

Fairmount HillsFairmount, NY 13219

Lat: 43.03602, Lon: -76.247151

Elevation: 663

Station Type: Ambient Weather WS-2080

http://weather.cerchia.com

High Low Average
Temperature 79.1°F26.2°F 61.2°F16.2°F 71.6°F22.0°F
Dew Point 71.2°F21.8°F 54.9°F12.7°F 62.0°F16.7°F
Winds 5.4 mph NE8.7 mph NE Calm Calm 2.4 mph 3.9 mph
Wind Gusts 18.2 mph29.3 mph -- 7.3 mph11.7 mph
Humidity 96% 45% 73%
Pressure 30.22 in1023.40 in 30.13 in1020.30 in -
Precipitation 0.00 in0.00 in - -
Hour Temp Dew Point Humidity Winds Wind Gusts Pressure Precip Precip Rate Daily Precip Total
12:00 AM 76.9°F24.9°C 71.0°F21.7°C 82% 2.0 mph NW3.2 kmh NW 8.7 mph14.0 kmh 30.13 in1020.3 mb 0.00 in0.0 mm 0.00 in0.0 mm 0.00 in0.0 mm
12:15 AM 76.7°F24.8°C 71.2°F21.8°C 83% 2.4 mph NNW3.9 kmh NNW 7.5 mph12.1 kmh 30.13 in1020.3 mb 0.00 in0.0 mm 0.00 in0.0 mm 0.00 in0.0 mm
12:30 AM 76.2°F24.6°C 71.0°F21.7°C 84% 3.1 mph NW5.0 kmh NW 7.5 mph12.1 kmh 30.14 in1020.7 mb 0.00 in0.0 mm 0.00 in0.0 mm 0.00 in0.0 mm
12:45 AM 75.5°F24.2°C 70.6°F21.4°C 85% 2.7 mph NW4.3 kmh NW 8.7 mph14.0 kmh 30.14 in1020.7 mb 0.00 in0.0 mm 0.00 in0.0 mm 0.00 in0.0 mm
01:00 AM 75.1°F23.9°C 70.6°F21.4°C 86% 2.7 mph NNW4.3 kmh NNW 9.5 mph15.3 kmh 30.14 in1020.7 mb 0.00 in0.0 mm 0.00 in0.0 mm 0.00 in0.0 mm
01:15 AM 74.6°F23.7°C 69.8°F21.0°C 85% 3.0 mph NW4.8 kmh NW 9.5 mph15.3 kmh 30.14 in1020.7 mb 0.00 in0.0 mm 0.00 in0.0 mm 0.00 in0.0 mm
01:30 AM 74.0°F23.3°C 69.6°F20.9°C 86% 1.6 mph NW2.6 kmh NW 6.7 mph10.8 kmh 30.14 in1020.7 mb 0.00 in0.0 mm 0.00 in0.0 mm 0.00 in0.0 mm
01:45 AM 73.5°F23.1°C 69.0°F20.6°C 86% 3.0 mph NW4.8 kmh NW 10.3 mph16.6 kmh 30.14 in1020.7 mb 0.00 in0.0 mm 0.00 in0.0 mm 0.00 in0.0 mm
02:00 AM 72.9°F22.7°C 68.5°F20.3°C 86% 3.2 mph WNW5.1 kmh WNW 8.7 mph14.0 kmh 30.14 in1020.7 mb 0.00 in0.0 mm 0.00 in0.0 mm 0.00 in0.0 mm
02:15 AM 72.6°F22.6°C 68.5°F20.3°C 87% 2.9 mph WNW4.7 kmh WNW 6.7 mph10.8 kmh 30.13 in1020.3 mb 0.00 in0.0 mm 0.00 in0.0 mm 0.00 in0.0 mm
02:30 AM 72.2°F22.3°C 67.5°F19.7°C 85% 2.8 mph NW4.5 kmh NW 8.7 mph14.0 kmh 30.14 in1020.7 mb 0.00 in0.0 mm 0.00 in0.0 mm 0.00 in0.0 mm
02:45 AM 71.9°F22.2°C 66.4°F19.1°C 83% 2.3 mph NW3.7 kmh NW 5.6 mph9.0 kmh 30.14 in1020.7 mb 0.00 in0.0 mm 0.00 in0.0 mm 0.00 in0.0 mm
03:00 AM 71.3°F21.8°C 65.9°F18.8°C 83% 1.4 mph N2.3 kmh N 6.7 mph10.8 kmh 30.13 in1020.3 mb 0.00 in0.0 mm 0.00 in0.0 mm 0.00 in0.0 mm
03:15 AM 70.6°F21.4°C 65.9°F18.8°C 85% 1.1 mph N1.8 kmh N 5.6 mph9.0 kmh 30.14 in1020.7 mb 0.00 in0.0 mm 0.00 in0.0 mm 0.00 in0.0 mm
03:30 AM 70.6°F21.4°C 66.2°F19.0°C 86% 2.1 mph NW3.4 kmh NW 5.6 mph9.0 kmh 30.14 in1020.7 mb 0.00 in0.0 mm 0.00 in0.0 mm 0.00 in0.0 mm
03:45 AM 70.4°F21.3°C 66.0°F18.9°C 86% 1.5 mph NW2.4 kmh NW 5.6 mph9.0 kmh 30.14 in1020.7 mb 0.00 in0.0 mm 0.00 in0.0 mm 0.00 in0.0 mm
04:00 AM 70.2°F21.2°C 65.9°F18.8°C 86% 1.9 mph NNW3.1 kmh NNW 7.5 mph12.1 kmh 30.14 in1020.7 mb 0.00 in0.0 mm 0.00 in0.0 mm 0.00 in0.0 mm
04:15 AM 69.9°F21.1°C 65.8°F18.8°C 87% 2.0 mph NNW3.2 kmh NNW 9.5 mph15.3 kmh 30.15 in1021.0 mb 0.00 in0.0 mm 0.00 in0.0 mm 0.00 in0.0 mm
04:30 AM 69.7°F20.9°C 65.7°F18.7°C 87% 2.2 mph NW3.5 kmh NW 6.7 mph10.8 kmh 30.15 in1021.0 mb 0.00 in0.0 mm 0.00 in0.0 mm 0.00 in0.0 mm
04:45 AM 69.3°F20.7°C 65.3°F18.5°C 87% 1.9 mph N3.1 kmh N 4.8 mph7.7 kmh 30.15 in1021.0 mb 0.00 in0.0 mm 0.00 in0.0 mm 0.00 in0.0 mm
05:00 AM 68.8°F20.4°C 65.1°F18.4°C 88% 2.2 mph NW3.5 kmh NW 6.7 mph10.8 kmh 30.16 in1021.3 mb 0.00 in0.0 mm 0.00 in0.0 mm 0.00 in0.0 mm
05:15 AM 68.8°F20.4°C 65.4°F18.6°C 89% 2.4 mph NNW3.9 kmh NNW 6.7 mph10.8 kmh 30.16 in1021.3 mb 0.00 in0.0 mm 0.00 in0.0 mm 0.00 in0.0 mm
05:30 AM 68.8°F20.4°C 65.4°F18.6°C 89% 2.1 mph NNW3.4 kmh NNW 7.5 mph12.1 kmh 30.16 in1021.3 mb 0.00 in0.0 mm 0.00 in0.0 mm 0.00 in0.0 mm
05:45 AM 68.6°F20.3°C 65.6°F18.7°C 90% 1.5 mph NW2.4 kmh NW 5.6 mph9.0 kmh 30.16 in1021.3 mb 0.00 in0.0 mm 0.00 in0.0 mm 0.00 in0.0 mm
06:00 AM 68.4°F20.2°C 65.4°F18.6°C 90% 2.4 mph NW3.9 kmh NW 6.7 mph10.8 kmh 30.16 in1021.3 mb 0.00 in0.0 mm 0.00 in0.0 mm 0.00 in0.0 mm
06:15 AM 68.3°F20.2°C 65.2°F18.4°C 90% 1.7 mph NNW2.7 kmh NNW 4.8 mph7.7 kmh 30.16 in1021.3 mb 0.00 in0.0 mm 0.00 in0.0 mm 0.00 in0.0 mm
06:30 AM 67.7°F19.8°C 64.7°F18.2°C 90% 0.8 mph N1.3 kmh N 4.8 mph7.7 kmh 30.17 in1021.7 mb 0.00 in0.0 mm 0.00 in0.0 mm 0.00 in0.0 mm
06:45 AM 67.2°F19.6°C 64.8°F18.2°C 92% 1.0 mph NNW1.6 kmh NNW 5.6 mph9.0 kmh 30.18 in1022.0 mb 0.00 in0.0 mm 0.00 in0.0 mm 0.00 in0.0 mm
07:00 AM 67.0°F19.4°C 64.9°F18.3°C 93% 1.3 mph NW2.1 kmh NW 5.6 mph9.0 kmh 30.19 in1022.4 mb 0.00 in0.0 mm 0.00 in0.0 mm 0.00 in0.0 mm
07:15 AM 66.6°F19.2°C 65.5°F18.6°C 96% 0.9 mph NW1.4 kmh NW 4.8 mph7.7 kmh 30.20 in1022.7 mb 0.00 in0.0 mm 0.00 in0.0 mm 0.00 in0.0 mm
07:30 AM 66.6°F19.2°C 65.5°F18.6°C 96% 1.4 mph NNW2.3 kmh NNW 4.8 mph7.7 kmh 30.20 in1022.7 mb 0.00 in0.0 mm 0.00 in0.0 mm 0.00 in0.0 mm
07:45 AM 67.0°F19.4°C 65.2°F18.4°C 94% 0.8 mph NNW1.3 kmh NNW 5.6 mph9.0 kmh 30.20 in1022.7 mb 0.00 in0.0 mm 0.00 in0.0 mm 0.00 in0.0 mm
08:00 AM 67.4°F19.7°C 65.6°F18.7°C 94% 2.2 mph NNW3.5 kmh NNW 6.7 mph10.8 kmh 30.20 in1022.7 mb 0.00 in0.0 mm 0.00 in0.0 mm 0.00 in0.0 mm
08:15 AM 68.1°F20.1°C 66.3°F19.1°C 94% 1.7 mph N2.7 kmh N 6.7 mph10.8 kmh 30.21 in1023.0 mb 0.00 in0.0 mm 0.00 in0.0 mm 0.00 in0.0 mm
08:30 AM 68.8°F20.4°C 65.4°F18.6°C 89% 3.4 mph N5.5 kmh N 11.5 mph18.5 kmh 30.21 in1023.0 mb 0.00 in0.0 mm 0.00 in0.0 mm 0.00 in0.0 mm
08:45 AM 69.2°F20.7°C 65.1°F18.4°C 87% 2.2 mph N3.5 kmh N 5.6 mph9.0 kmh 30.21 in1023.0 mb 0.00 in0.0 mm 0.00 in0.0 mm 0.00 in0.0 mm
09:00 AM 69.7°F20.9°C 65.0°F18.3°C 85% 2.5 mph NNW4.0 kmh NNW 7.5 mph12.1 kmh 30.21 in1023.0 mb 0.00 in0.0 mm 0.00 in0.0 mm 0.00 in0.0 mm
09:15 AM 70.2°F21.2°C 63.4°F17.4°C 79% 0.7 mph NE1.1 kmh NE 3.9 mph6.3 kmh 30.21 in1023.0 mb 0.00 in0.0 mm 0.00 in0.0 mm 0.00 in0.0 mm
09:30 AM 70.4°F21.3°C 62.1°F16.7°C 75% 1.7 mph NE2.7 kmh NE 6.7 mph10.8 kmh 30.21 in1023.0 mb 0.00 in0.0 mm 0.00 in0.0 mm 0.00 in0.0 mm
09:45 AM 71.5°F21.9°C 61.6°F16.4°C 71% 3.7 mph NE6.0 kmh NE 11.5 mph18.5 kmh 30.22 in1023.4 mb 0.00 in0.0 mm 0.00 in0.0 mm 0.00 in0.0 mm
10:00 AM 72.0°F22.2°C 62.5°F16.9°C 72% 2.7 mph NNE4.3 kmh NNE 6.7 mph10.8 kmh 30.22 in1023.4 mb 0.00 in0.0 mm 0.00 in0.0 mm 0.00 in0.0 mm
10:15 AM 72.0°F22.2°C 62.5°F16.9°C 72% 2.6 mph N4.2 kmh N 8.7 mph14.0 kmh 30.22 in1023.4 mb 0.00 in0.0 mm 0.00 in0.0 mm 0.00 in0.0 mm
10:30 AM 72.4°F22.4°C 62.9°F17.2°C 72% 2.7 mph NE4.3 kmh NE 9.5 mph15.3 kmh 30.22 in1023.4 mb 0.00 in0.0 mm 0.00 in0.0 mm 0.00 in0.0 mm
10:45 AM 72.4°F22.4°C 61.7°F16.5°C 69% 3.7 mph NNE6.0 kmh NNE 10.3 mph16.6 kmh 30.22 in1023.4 mb 0.00 in0.0 mm 0.00 in0.0 mm 0.00 in0.0 mm
11:00 AM 72.9°F22.7°C 61.3°F16.3°C 67% 4.5 mph NNE7.2 kmh NNE 11.5 mph18.5 kmh 30.22 in1023.4 mb 0.00 in0.0 mm 0.00 in0.0 mm 0.00 in0.0 mm
11:15 AM 73.1°F22.8°C 61.1°F16.2°C 66% 5.0 mph NE8.0 kmh NE 11.5 mph18.5 kmh 30.22 in1023.4 mb 0.00 in0.0 mm 0.00 in0.0 mm 0.00 in0.0 mm
11:30 AM 73.3°F22.9°C 60.8°F16.0°C 65% 2.0 mph N3.2 kmh N 6.7 mph10.8 kmh 30.21 in1023.0 mb 0.00 in0.0 mm 0.00 in0.0 mm 0.00 in0.0 mm
11:45 AM 73.7°F23.2°C 61.6°F16.4°C 66% 4.0 mph NNE6.4 kmh NNE 11.5 mph18.5 kmh 30.21 in1023.0 mb 0.00 in0.0 mm 0.00 in0.0 mm 0.00 in0.0 mm
12:00 PM 74.2°F23.4°C 61.7°F16.5°C 65% 3.3 mph NNE5.3 kmh NNE 9.5 mph15.3 kmh 30.21 in1023.0 mb 0.00 in0.0 mm 0.00 in0.0 mm 0.00 in0.0 mm
12:15 PM 74.7°F23.7°C 61.7°F16.5°C 64% 3.6 mph N5.8 kmh N 10.3 mph16.6 kmh 30.22 in1023.4 mb 0.00 in0.0 mm 0.00 in0.0 mm 0.00 in0.0 mm
12:30 PM 75.5°F24.2°C 62.4°F16.9°C 64% 4.9 mph N7.9 kmh N 14.3 mph23.0 kmh 30.22 in1023.4 mb 0.00 in0.0 mm 0.00 in0.0 mm 0.00 in0.0 mm
12:45 PM 74.6°F23.7°C 61.1°F16.2°C 63% 4.4 mph NE7.1 kmh NE 10.3 mph16.6 kmh 30.21 in1023.0 mb 0.00 in0.0 mm 0.00 in0.0 mm 0.00 in0.0 mm
01:00 PM 74.9°F23.8°C 61.0°F16.1°C 62% 5.0 mph NE8.0 kmh NE 11.5 mph18.5 kmh 30.21 in1023.0 mb 0.00 in0.0 mm 0.00 in0.0 mm 0.00 in0.0 mm
01:15 PM 74.9°F23.8°C 61.9°F16.6°C 64% 3.6 mph NE5.8 kmh NE 12.3 mph19.8 kmh 30.22 in1023.4 mb 0.00 in0.0 mm 0.00 in0.0 mm 0.00 in0.0 mm
01:30 PM 75.1°F23.9°C 60.3°F15.7°C 60% 5.4 mph NE8.7 kmh NE 12.3 mph19.8 kmh 30.22 in1023.4 mb 0.00 in0.0 mm 0.00 in0.0 mm 0.00 in0.0 mm
01:45 PM 76.5°F24.7°C 61.6°F16.4°C 60% 4.7 mph N7.6 kmh N 11.5 mph18.5 kmh 30.21 in1023.0 mb 0.00 in0.0 mm 0.00 in0.0 mm 0.00 in0.0 mm
02:00 PM 76.0°F24.4°C 60.2°F15.7°C 58% 4.9 mph NNE7.9 kmh NNE 13.4 mph21.6 kmh 30.22 in1023.4 mb 0.00 in0.0 mm 0.00 in0.0 mm 0.00 in0.0 mm
02:15 PM 77.4°F25.2°C 61.5°F16.4°C 58% 4.1 mph NNE6.6 kmh NNE 13.4 mph21.6 kmh 30.21 in1023.0 mb 0.00 in0.0 mm 0.00 in0.0 mm 0.00 in0.0 mm
02:30 PM 77.3°F25.2°C 60.8°F16.0°C 57% 4.0 mph NNE6.4 kmh NNE 11.5 mph18.5 kmh 30.21 in1023.0 mb 0.00 in0.0 mm 0.00 in0.0 mm 0.00 in0.0 mm
02:45 PM 76.2°F24.6°C 60.8°F16.0°C 59% 3.6 mph NE5.8 kmh NE 13.4 mph21.6 kmh 30.21 in1023.0 mb 0.00 in0.0 mm 0.00 in0.0 mm 0.00 in0.0 mm
03:00 PM 77.6°F25.3°C 59.7°F15.4°C 54% 5.4 mph N8.7 kmh N 12.3 mph19.8 kmh 30.20 in1022.7 mb 0.00 in0.0 mm 0.00 in0.0 mm 0.00 in0.0 mm
03:15 PM 78.3°F25.7°C 58.7°F14.8°C 51% 4.5 mph N7.2 kmh N 12.3 mph19.8 kmh 30.20 in1022.7 mb 0.00 in0.0 mm 0.00 in0.0 mm 0.00 in0.0 mm
03:30 PM 78.3°F25.7°C 58.7°F14.8°C 51% 4.4 mph NNE7.1 kmh NNE 12.3 mph19.8 kmh 30.20 in1022.7 mb 0.00 in0.0 mm 0.00 in0.0 mm 0.00 in0.0 mm
03:45 PM 78.0°F25.6°C 56.7°F13.7°C 48% 5.3 mph NE8.5 kmh NE 18.2 mph29.3 kmh 30.19 in1022.4 mb 0.00 in0.0 mm 0.00 in0.0 mm 0.00 in0.0 mm
04:00 PM 79.1°F26.2°C 57.1°F13.9°C 47% 4.2 mph N6.8 kmh N 13.4 mph21.6 kmh 30.19 in1022.4 mb 0.00 in0.0 mm 0.00 in0.0 mm 0.00 in0.0 mm
04:15 PM 78.0°F25.6°C 56.1°F13.4°C 47% 5.1 mph NNE8.2 kmh NNE 11.5 mph18.5 kmh 30.20 in1022.7 mb 0.00 in0.0 mm 0.00 in0.0 mm 0.00 in0.0 mm
04:30 PM 78.7°F25.9°C 55.6°F13.1°C 45% 4.5 mph NW7.2 kmh NW 12.3 mph19.8 kmh 30.19 in1022.4 mb 0.00 in0.0 mm 0.00 in0.0 mm 0.00 in0.0 mm
04:45 PM 79.1°F26.2°C 56.5°F13.6°C 46% 3.8 mph NE6.1 kmh NE 9.5 mph15.3 kmh 30.19 in1022.4 mb 0.00 in0.0 mm 0.00 in0.0 mm 0.00 in0.0 mm
05:00 PM 78.5°F25.8°C 56.0°F13.3°C 46% 4.0 mph NW6.4 kmh NW 9.5 mph15.3 kmh 30.19 in1022.4 mb 0.00 in0.0 mm 0.00 in0.0 mm 0.00 in0.0 mm
05:15 PM 78.0°F25.6°C 54.9°F12.7°C 45% 4.0 mph N6.4 kmh N 11.5 mph18.5 kmh 30.19 in1022.4 mb 0.00 in0.0 mm 0.00 in0.0 mm 0.00 in0.0 mm
05:30 PM 78.0°F25.6°C 55.5°F13.1°C 46% 3.2 mph N5.1 kmh N 7.5 mph12.1 kmh 30.19 in1022.4 mb 0.00 in0.0 mm 0.00 in0.0 mm 0.00 in0.0 mm
05:45 PM 77.6°F25.3°C 57.5°F14.2°C 50% 2.7 mph NNE4.3 kmh NNE 6.7 mph10.8 kmh 30.19 in1022.4 mb 0.00 in0.0 mm 0.00 in0.0 mm 0.00 in0.0 mm
06:00 PM 77.1°F25.1°C 56.4°F13.6°C 49% 4.0 mph N6.4 kmh N 9.5 mph15.3 kmh 30.19 in1022.4 mb 0.00 in0.0 mm 0.00 in0.0 mm 0.00 in0.0 mm
06:15 PM 76.9°F24.9°C 56.3°F13.5°C 49% 2.0 mph NNE3.2 kmh NNE 7.5 mph12.1 kmh 30.18 in1022.0 mb 0.00 in0.0 mm 0.00 in0.0 mm 0.00 in0.0 mm
06:30 PM 76.4°F24.7°C 56.9°F13.8°C 51% 3.0 mph NNE4.8 kmh NNE 8.7 mph14.0 kmh 30.18 in1022.0 mb 0.00 in0.0 mm 0.00 in0.0 mm 0.00 in0.0 mm
06:45 PM 76.0°F24.4°C 56.6°F13.7°C 51% 2.6 mph NNE4.2 kmh NNE 7.5 mph12.1 kmh 30.18 in1022.0 mb 0.00 in0.0 mm 0.00 in0.0 mm 0.00 in0.0 mm
07:00 PM 76.0°F24.4°C 57.1°F13.9°C 52% 1.1 mph NNE1.8 kmh NNE 4.8 mph7.7 kmh 30.19 in1022.4 mb 0.00 in0.0 mm 0.00 in0.0 mm 0.00 in0.0 mm
07:15 PM 73.3°F22.9°C 56.2°F13.4°C 55% 1.8 mph NE2.9 kmh NE 5.6 mph9.0 kmh 30.18 in1022.0 mb 0.00 in0.0 mm 0.00 in0.0 mm 0.00 in0.0 mm
07:30 PM 71.7°F22.1°C 56.1°F13.4°C 58% 0.5 mph N0.8 kmh N 3.9 mph6.3 kmh 30.18 in1022.0 mb 0.00 in0.0 mm 0.00 in0.0 mm 0.00 in0.0 mm
07:45 PM 70.4°F21.3°C 56.3°F13.5°C 61% 0.1 mph N0.2 kmh N 2.0 mph3.2 kmh 30.19 in1022.4 mb 0.00 in0.0 mm 0.00 in0.0 mm 0.00 in0.0 mm
08:00 PM 69.5°F20.8°C 56.4°F13.6°C 63% 0.2 mph S0.3 kmh S 2.0 mph3.2 kmh 30.19 in1022.4 mb 0.00 in0.0 mm 0.00 in0.0 mm 0.00 in0.0 mm
08:15 PM 68.1°F20.1°C 57.1°F13.9°C 68% 0.2 mph S0.3 kmh S 2.0 mph3.2 kmh 30.19 in1022.4 mb 0.00 in0.0 mm 0.00 in0.0 mm 0.00 in0.0 mm
08:30 PM 67.0°F19.4°C 57.3°F14.1°C 71% 0.2 mph SE0.3 kmh SE 2.0 mph3.2 kmh 30.20 in1022.7 mb 0.00 in0.0 mm 0.00 in0.0 mm 0.00 in0.0 mm
08:45 PM 66.5°F19.2°C 58.3°F14.6°C 75% 0.2 mph S0.3 kmh S 2.8 mph4.5 kmh 30.20 in1022.7 mb 0.00 in0.0 mm 0.00 in0.0 mm 0.00 in0.0 mm
09:00 PM 65.6°F18.7°C 57.8°F14.3°C 76% 0.4 mph SE0.6 kmh SE 2.0 mph3.2 kmh 30.19 in1022.4 mb 0.00 in0.0 mm 0.00 in0.0 mm 0.00 in0.0 mm
09:15 PM 64.8°F18.2°C 58.2°F14.6°C 79% Calm Calm -- 30.19 in1022.4 mb 0.00 in0.0 mm 0.00 in0.0 mm 0.00 in0.0 mm
09:30 PM 64.1°F17.8°C 58.2°F14.6°C 81% Calm Calm -- 30.19 in1022.4 mb 0.00 in0.0 mm 0.00 in0.0 mm 0.00 in0.0 mm
09:45 PM 63.8°F17.7°C 58.5°F14.7°C 83% 0.7 mph E1.1 kmh E 2.0 mph3.2 kmh 30.19 in1022.4 mb 0.00 in0.0 mm 0.00 in0.0 mm 0.00 in0.0 mm
10:00 PM 63.2°F17.3°C 58.3°F14.6°C 84% 0.4 mph E0.6 kmh E 2.0 mph3.2 kmh 30.20 in1022.7 mb 0.00 in0.0 mm 0.00 in0.0 mm 0.00 in0.0 mm
10:15 PM 63.2°F17.3°C 58.3°F14.6°C 84% 0.7 mph E1.1 kmh E 2.0 mph3.2 kmh 30.20 in1022.7 mb 0.00 in0.0 mm 0.00 in0.0 mm 0.00 in0.0 mm
10:30 PM 62.7°F17.1°C 57.8°F14.3°C 84% Calm Calm -- 30.20 in1022.7 mb 0.00 in0.0 mm 0.00 in0.0 mm 0.00 in0.0 mm
10:45 PM 62.5°F16.9°C 58.3°F14.6°C 86% Calm Calm -- 30.20 in1022.7 mb 0.00 in0.0 mm 0.00 in0.0 mm 0.00 in0.0 mm
11:00 PM 62.1°F16.7°C 57.9°F14.4°C 86% Calm Calm -- 30.20 in1022.7 mb 0.00 in0.0 mm 0.00 in0.0 mm 0.00 in0.0 mm
11:15 PM 62.0°F16.7°C 58.0°F14.4°C 87% Calm Calm -- 30.20 in1022.7 mb 0.00 in0.0 mm 0.00 in0.0 mm 0.00 in0.0 mm
11:30 PM 61.8°F16.6°C 58.2°F14.6°C 88% Calm Calm -- 30.20 in1022.7 mb 0.00 in0.0 mm 0.00 in0.0 mm 0.00 in0.0 mm
11:45 PM 61.2°F16.2°C 58.3°F14.6°C 90% Calm Calm -- 30.20 in1022.7 mb 0.00 in0.0 mm 0.00 in0.0 mm 0.00 in0.0 mm